createdAt,value
2017-11-29T00:02:09.908Z,13.25
2017-11-29T00:04:38.493Z,15.48
2017-11-29T00:07:06.571Z,11.48
2017-11-29T00:09:34.631Z,10.80
2017-11-29T00:12:03.735Z,17.65
2017-11-29T00:14:32.297Z,14.77
2017-11-29T00:17:00.370Z,16.02
2017-11-29T00:19:28.456Z,13.88
2017-11-29T00:21:56.503Z,11.93
2017-11-29T00:24:24.570Z,17.05
2017-11-29T00:26:53.411Z,14.05
2017-11-29T00:29:21.459Z,14.05
2017-11-29T00:31:49.537Z,12.48
2017-11-29T00:34:17.593Z,21.27
2017-11-29T00:36:47.847Z,14.40
2017-11-29T00:39:15.912Z,13.90
2017-11-29T00:41:44.355Z,12.55
2017-11-29T00:44:12.425Z,11.15
2017-11-29T00:46:40.497Z,14.00
2017-11-29T00:49:08.601Z,19.67
2017-11-29T00:51:36.668Z,13.05
2017-11-29T00:54:04.749Z,12.00
2017-11-29T00:56:32.925Z,13.52
2017-11-29T00:59:00.980Z,15.85
2017-11-29T01:01:29.960Z,13.45
2017-11-29T01:03:58.023Z,11.43
2017-11-29T01:06:26.104Z,14.63
2017-11-29T01:08:54.321Z,17.42
2017-11-29T01:11:22.394Z,17.60
2017-11-29T01:13:51.265Z,12.13
2017-11-29T01:16:19.355Z,12.73
2017-11-29T01:18:48.174Z,14.07
2017-11-29T01:21:17.044Z,13.35
2017-11-29T01:23:45.880Z,13.40
2017-11-29T01:26:14.069Z,16.15
2017-11-29T01:28:42.143Z,14.65
2017-11-29T01:31:10.260Z,11.80
2017-11-29T01:33:38.349Z,14.63
2017-11-29T01:36:06.450Z,15.35
2017-11-29T01:38:34.553Z,12.43
2017-11-29T01:41:03.375Z,17.92
2017-11-29T01:43:31.453Z,17.10
2017-11-29T01:45:59.528Z,18.45
2017-11-29T01:48:27.597Z,15.50
2017-11-29T01:50:55.673Z,16.08
2017-11-29T01:53:23.755Z,17.70
2017-11-29T01:55:51.819Z,15.95
2017-11-29T01:58:19.894Z,11.82
2017-11-29T02:00:48.728Z,16.45
2017-11-29T02:03:17.580Z,18.67
2017-11-29T02:05:45.653Z,14.63
2017-11-29T02:08:14.456Z,13.23
2017-11-29T02:10:42.512Z,15.90
2017-11-29T02:13:10.581Z,13.25
2017-11-29T02:15:38.647Z,14.20
2017-11-29T02:18:06.717Z,20.17
2017-11-29T02:20:35.521Z,19.30
2017-11-29T02:23:03.686Z,25.48
2017-11-29T02:25:31.743Z,15.43
2017-11-29T02:27:59.800Z,15.85
2017-11-29T02:30:27.894Z,15.55
2017-11-29T02:32:56.033Z,13.77
2017-11-29T02:35:24.086Z,16.55
2017-11-29T02:37:52.189Z,19.05
2017-11-29T02:40:38.192Z,12.88
2017-11-29T02:43:06.257Z,16.62
2017-11-29T02:45:34.334Z,15.05
2017-11-29T02:48:02.469Z,16.25
2017-11-29T02:50:30.553Z,16.77
2017-11-29T02:52:58.616Z,14.00
2017-11-29T02:55:26.668Z,18.98
2017-11-29T02:57:54.737Z,13.73
2017-11-29T03:00:22.808Z,13.50
2017-11-29T03:02:50.898Z,18.73
2017-11-29T03:05:19.008Z,11.75
2017-11-29T03:07:47.023Z,13.62
2017-11-29T03:10:15.093Z,14.73
2017-11-29T03:12:43.181Z,17.35
2017-11-29T03:15:11.237Z,17.02
2017-11-29T03:17:39.817Z,13.23
2017-11-29T03:20:07.913Z,14.38
2017-11-29T03:22:35.959Z,18.10
2017-11-29T03:25:04.713Z,15.35
2017-11-29T03:27:32.861Z,16.10
2017-11-29T03:30:00.943Z,13.50
2017-11-29T03:32:29.142Z,18.45
2017-11-29T03:34:57.972Z,18.33
2017-11-29T03:37:26.035Z,14.90
2017-11-29T03:39:54.109Z,18.77
2017-11-29T03:42:22.182Z,16.85
2017-11-29T03:44:50.255Z,15.15
2017-11-29T03:47:18.332Z,17.00
2017-11-29T03:49:47.306Z,20.10
2017-11-29T03:52:15.373Z,14.55
2017-11-29T03:54:43.445Z,17.20
2017-11-29T03:57:11.552Z,26.75
2017-11-29T03:59:39.608Z,21.00
2017-11-29T04:02:07.677Z,17.42
2017-11-29T04:04:35.780Z,19.95
2017-11-29T04:07:03.841Z,21.85
2017-11-29T04:09:31.914Z,15.50
2017-11-29T04:11:59.984Z,15.75
2017-11-29T04:14:28.070Z,17.10
2017-11-29T04:16:56.912Z,18.92
2017-11-29T04:19:25.029Z,18.73
2017-11-29T04:21:53.867Z,15.20
2017-11-29T04:24:21.941Z,16.95
2017-11-29T04:26:50.010Z,20.02
2017-11-29T04:29:18.436Z,18.55
2017-11-29T04:31:46.494Z,17.87
2017-11-29T04:34:14.559Z,17.67
2017-11-29T04:36:42.619Z,19.92
2017-11-29T04:39:10.699Z,20.88
2017-11-29T04:41:38.772Z,14.63
2017-11-29T04:44:06.881Z,20.55
2017-11-29T04:46:35.698Z,17.08
2017-11-29T04:49:03.786Z,23.87
2017-11-29T04:51:31.841Z,17.67
2017-11-29T04:53:59.913Z,14.75
2017-11-29T04:56:27.993Z,38.75
2017-11-29T04:58:56.072Z,16.12
2017-11-29T05:01:24.161Z,15.60
2017-11-29T05:03:52.237Z,19.95
2017-11-29T05:06:20.386Z,18.33
2017-11-29T05:08:48.466Z,17.23
2017-11-29T05:11:16.528Z,18.10
2017-11-29T05:13:44.616Z,22.00
2017-11-29T05:16:12.676Z,18.77
2017-11-29T05:18:40.786Z,18.73
2017-11-29T05:21:09.741Z,18.27
2017-11-29T05:23:37.819Z,17.05
2017-11-29T05:26:05.867Z,15.77
2017-11-29T05:28:33.930Z,18.67
2017-11-29T05:31:02.001Z,16.27
2017-11-29T05:33:30.094Z,19.77
2017-11-29T05:35:58.163Z,23.98
2017-11-29T05:38:26.219Z,17.10
2017-11-29T05:40:54.306Z,22.70
2017-11-29T05:43:22.382Z,26.33
2017-11-29T05:45:50.484Z,22.08
2017-11-29T05:48:19.338Z,16.05
2017-11-29T05:50:47.409Z,22.73
2017-11-29T05:53:15.483Z,18.73
2017-11-29T05:55:43.551Z,20.55
2017-11-29T05:58:11.625Z,33.35
2017-11-29T06:00:40.591Z,26.52
2017-11-29T06:03:08.674Z,30.42
2017-11-29T06:05:36.732Z,17.58
2017-11-29T06:08:04.831Z,24.87
2017-11-29T06:10:32.995Z,54.28
2017-11-29T06:13:01.074Z,50.78
2017-11-29T06:15:29.145Z,29.70
2017-11-29T06:17:57.233Z,102.40
2017-11-29T06:20:26.059Z,21.85
2017-11-29T06:22:54.121Z,53.92
2017-11-29T06:25:22.184Z,40.78
2017-11-29T06:27:50.250Z,58.13
2017-11-29T06:30:19.005Z,21.35
2017-11-29T06:32:47.073Z,25.90
2017-11-29T06:35:15.231Z,30.85
2017-11-29T06:37:43.297Z,49.10
2017-11-29T06:40:11.365Z,129.18
2017-11-29T06:42:39.433Z,58.00
2017-11-29T06:45:07.479Z,25.10
2017-11-29T06:47:35.539Z,21.50
2017-11-29T06:50:03.612Z,43.53
2017-11-29T06:52:31.677Z,31.12
2017-11-29T06:54:59.745Z,19.70
2017-11-29T06:57:27.832Z,19.73
2017-11-29T06:59:55.912Z,48.30
2017-11-29T07:02:23.977Z,25.45
2017-11-29T07:04:52.048Z,34.95
2017-11-29T07:07:20.109Z,27.50
2017-11-29T07:09:48.177Z,28.85
2017-11-29T07:12:16.287Z,24.20
2017-11-29T07:14:44.506Z,21.42
2017-11-29T07:17:12.589Z,21.83
2017-11-29T07:19:40.658Z,29.15
2017-11-29T07:22:08.727Z,22.13
2017-11-29T07:24:36.796Z,22.45
2017-11-29T07:27:04.934Z,25.27
2017-11-29T07:29:33.126Z,24.15
2017-11-29T07:32:01.188Z,29.80
2017-11-29T07:34:30.061Z,23.80
2017-11-29T07:36:59.043Z,33.47
2017-11-29T07:39:27.092Z,24.77
2017-11-29T07:41:55.620Z,20.27
2017-11-29T07:44:24.658Z,22.67
2017-11-29T07:46:52.727Z,17.60
2017-11-29T07:49:20.795Z,24.48
2017-11-29T07:51:49.173Z,38.22
2017-11-29T07:54:17.250Z,27.45
2017-11-29T07:56:45.310Z,22.65
2017-11-29T07:59:13.381Z,25.30
2017-11-29T08:01:41.454Z,44.47
2017-11-29T08:04:09.516Z,25.20
2017-11-29T08:06:37.590Z,21.80
2017-11-29T08:09:05.669Z,27.25
2017-11-29T08:11:33.741Z,23.25
2017-11-29T08:14:01.854Z,29.45
2017-11-29T08:16:29.925Z,25.62
2017-11-29T08:18:58.038Z,20.17
2017-11-29T08:21:26.104Z,24.23
2017-11-29T08:23:54.239Z,21.67
2017-11-29T08:26:22.314Z,17.80
2017-11-29T08:28:50.480Z,21.52
2017-11-29T08:31:18.554Z,23.15
2017-11-29T08:33:46.729Z,17.42
2017-11-29T08:36:14.943Z,20.75
2017-11-29T08:38:43.009Z,23.17
2017-11-29T08:41:11.078Z,23.80
2017-11-29T08:43:39.153Z,19.37
2017-11-29T08:46:07.244Z,19.55
2017-11-29T08:48:35.352Z,21.45
2017-11-29T08:51:03.496Z,19.70
2017-11-29T08:53:31.603Z,24.92
2017-11-29T08:55:59.805Z,22.65
2017-11-29T08:58:27.864Z,25.85
2017-11-29T09:00:56.701Z,21.42
2017-11-29T09:03:24.768Z,21.08
2017-11-29T09:05:52.831Z,22.75
2017-11-29T09:08:21.732Z,18.85
2017-11-29T09:10:49.802Z,22.37
2017-11-29T09:13:17.886Z,20.58
2017-11-29T09:15:45.997Z,20.42
2017-11-29T09:18:14.825Z,19.67
2017-11-29T09:20:42.912Z,20.62
2017-11-29T09:23:11.084Z,19.60
2017-11-29T09:25:39.157Z,18.98
2017-11-29T09:28:07.275Z,25.17
2017-11-29T09:30:35.424Z,23.70
2017-11-29T09:33:03.508Z,22.77
2017-11-29T09:35:32.330Z,21.87
2017-11-29T09:38:00.433Z,18.45
2017-11-29T09:40:28.528Z,18.40
2017-11-29T09:42:56.675Z,17.87
2017-11-29T09:45:24.772Z,18.25
2017-11-29T09:47:53.629Z,19.98
2017-11-29T09:50:21.742Z,18.80
2017-11-29T09:52:50.584Z,17.58
2017-11-29T09:55:18.676Z,16.92
2017-11-29T09:57:46.740Z,20.35
2017-11-29T10:00:14.821Z,21.80
2017-11-29T10:02:43.804Z,20.12
2017-11-29T10:05:11.875Z,18.75
2017-11-29T10:07:40.044Z,17.62
2017-11-29T10:10:08.120Z,19.40
2017-11-29T10:12:36.184Z,21.73
2017-11-29T10:15:04.404Z,20.50
2017-11-29T10:17:32.475Z,20.43
2017-11-29T10:20:00.596Z,19.37
2017-11-29T10:22:28.677Z,17.15
2017-11-29T10:24:56.750Z,22.70
2017-11-29T10:27:24.893Z,25.97
2017-11-29T10:29:53.004Z,21.67
2017-11-29T10:32:21.081Z,22.63
2017-11-29T10:34:49.921Z,23.87
2017-11-29T10:37:18.011Z,20.17
2017-11-29T10:39:46.990Z,20.13
2017-11-29T10:42:15.889Z,19.73
2017-11-29T10:44:44.148Z,18.60
2017-11-29T10:47:13.037Z,17.30
2017-11-29T10:49:41.115Z,28.93
2017-11-29T10:52:09.344Z,16.37
2017-11-29T10:54:38.178Z,21.33
2017-11-29T10:57:06.978Z,19.60
2017-11-29T10:59:35.047Z,23.03
2017-11-29T11:02:03.245Z,18.60
2017-11-29T11:04:31.751Z,28.50
2017-11-29T11:07:00.606Z,19.90
2017-11-29T11:09:28.681Z,18.50
2017-11-29T11:11:56.845Z,21.00
2017-11-29T11:14:24.936Z,18.50
2017-11-29T11:16:53.787Z,20.40
2017-11-29T11:19:21.879Z,18.67
2017-11-29T11:21:50.023Z,20.40
2017-11-29T11:24:18.143Z,21.17
2017-11-29T11:26:46.991Z,18.47
2017-11-29T11:29:15.064Z,17.63
2017-11-29T11:31:43.134Z,18.40
2017-11-29T11:34:11.228Z,20.00
2017-11-29T11:36:39.343Z,19.47
2017-11-29T11:39:07.430Z,19.50
2017-11-29T11:41:35.504Z,23.80
2017-11-29T11:44:03.601Z,21.93
2017-11-29T11:46:31.692Z,19.90
2017-11-29T11:48:59.770Z,18.63
2017-11-29T11:51:28.660Z,18.87
2017-11-29T11:53:57.526Z,20.70
2017-11-29T11:56:25.641Z,22.87
2017-11-29T11:58:53.737Z,21.47
2017-11-29T12:01:21.892Z,20.10
2017-11-29T12:03:49.965Z,26.33
2017-11-29T12:06:18.031Z,25.43
2017-11-29T12:08:46.102Z,23.70
2017-11-29T12:11:14.192Z,25.03
2017-11-29T12:13:42.278Z,22.00
2017-11-29T12:16:10.388Z,19.23
2017-11-29T12:18:38.452Z,20.70
2017-11-29T12:21:06.529Z,22.17
2017-11-29T12:23:35.379Z,28.47
2017-11-29T12:26:03.479Z,26.63
2017-11-29T12:28:31.548Z,21.00
2017-11-29T12:30:59.619Z,18.67
2017-11-29T12:33:27.788Z,19.27
2017-11-29T12:35:55.960Z,22.07
2017-11-29T12:38:24.052Z,21.57
2017-11-29T12:40:52.905Z,23.80
2017-11-29T12:43:21.352Z,22.93
2017-11-29T12:45:49.411Z,24.40
2017-11-29T12:48:35.478Z,21.80
2017-11-29T12:51:16.076Z,19.10
2017-11-29T12:53:44.169Z,23.63
2017-11-29T12:56:12.984Z,19.87
2017-11-29T12:58:41.155Z,20.93
2017-11-29T13:01:09.237Z,18.57
2017-11-29T13:03:38.100Z,19.03
2017-11-29T13:06:06.174Z,19.43
2017-11-29T13:08:34.252Z,19.03
2017-11-29T13:11:02.329Z,21.93
2017-11-29T13:13:30.409Z,18.27
2017-11-29T13:15:58.467Z,18.50
2017-11-29T13:18:26.557Z,23.13
2017-11-29T13:20:54.620Z,17.97
2017-11-29T13:23:22.711Z,20.80
2017-11-29T13:25:51.551Z,21.50
2017-11-29T13:28:19.628Z,24.13
2017-11-29T13:30:47.695Z,21.43
2017-11-29T13:33:15.773Z,23.27
2017-11-29T13:35:43.857Z,27.57
2017-11-29T13:38:11.923Z,20.80
2017-11-29T13:40:40.018Z,22.20
2017-11-29T13:43:08.869Z,21.70
2017-11-29T13:45:36.956Z,20.63
2017-11-29T13:48:05.044Z,24.07
2017-11-29T13:50:34.430Z,22.60
2017-11-29T13:53:02.583Z,23.67
2017-11-29T13:55:30.683Z,23.67
2017-11-29T13:57:59.551Z,19.10
2017-11-29T14:00:27.637Z,20.30
2017-11-29T14:02:55.725Z,22.97
2017-11-29T14:05:23.860Z,20.43
2017-11-29T14:07:51.947Z,21.27
2017-11-29T14:10:20.049Z,20.23
2017-11-29T14:12:48.941Z,23.73
2017-11-29T14:15:17.016Z,18.97
2017-11-29T14:17:45.144Z,30.50
2017-11-29T14:20:13.228Z,23.30
2017-11-29T14:22:42.076Z,23.53
2017-11-29T14:25:10.270Z,20.50
2017-11-29T14:27:38.343Z,21.73
2017-11-29T14:30:06.408Z,22.00
2017-11-29T14:32:34.484Z,23.40
2017-11-29T14:35:02.566Z,21.45
2017-11-29T14:37:30.679Z,27.70
2017-11-29T14:39:58.762Z,24.75
2017-11-29T14:42:26.837Z,22.70
2017-11-29T14:44:54.920Z,23.70
2017-11-29T14:47:23.014Z,24.02
2017-11-29T14:49:51.104Z,25.45
2017-11-29T14:52:19.929Z,25.02
2017-11-29T14:54:48.011Z,24.70
2017-11-29T14:57:16.117Z,25.27
2017-11-29T14:59:44.187Z,26.60
2017-11-29T15:02:12.516Z,34.05
2017-11-29T15:04:40.616Z,24.83
2017-11-29T15:07:08.683Z,22.20
2017-11-29T15:09:36.757Z,23.20
2017-11-29T15:12:04.849Z,24.87
2017-11-29T15:14:32.935Z,24.33
2017-11-29T15:17:01.772Z,32.97
2017-11-29T15:19:29.841Z,28.60
2017-11-29T15:21:57.915Z,31.40
2017-11-29T15:24:26.104Z,28.42
2017-11-29T15:26:54.176Z,34.50
2017-11-29T15:29:22.347Z,27.77
2017-11-29T15:31:51.188Z,28.90
2017-11-29T15:34:19.982Z,49.45
2017-11-29T15:36:48.069Z,36.22
2017-11-29T15:39:16.174Z,29.37
2017-11-29T15:41:44.254Z,26.17
2017-11-29T15:44:12.313Z,36.95
2017-11-29T15:46:40.400Z,35.28
2017-11-29T15:49:08.778Z,32.67
2017-11-29T15:51:37.648Z,36.97
2017-11-29T15:54:05.720Z,31.12
2017-11-29T15:56:33.828Z,31.70
2017-11-29T15:59:02.664Z,29.40
2017-11-29T16:01:30.729Z,27.83
2017-11-29T16:03:58.806Z,28.60
2017-11-29T16:06:26.878Z,28.85
2017-11-29T16:08:54.965Z,30.12
2017-11-29T16:11:23.049Z,36.97
2017-11-29T16:13:51.143Z,31.92
2017-11-29T16:16:19.976Z,23.15
2017-11-29T16:18:49.233Z,30.12
2017-11-29T16:21:18.090Z,32.40
2017-11-29T16:23:46.175Z,122.50
2017-11-29T16:26:15.405Z,146.00
2017-11-29T16:28:43.476Z,111.50
2017-11-29T16:31:11.568Z,36.33
2017-11-29T16:33:39.649Z,46.80
2017-11-29T16:36:07.721Z,30.55
2017-11-29T16:38:35.814Z,34.65
2017-11-29T16:41:03.884Z,25.23
2017-11-29T16:43:31.968Z,25.95
2017-11-29T16:46:01.153Z,26.30
2017-11-29T16:48:29.232Z,24.80
2017-11-29T16:50:58.068Z,29.42
2017-11-29T16:53:26.184Z,27.70
2017-11-29T16:55:54.268Z,29.33
2017-11-29T16:58:22.376Z,26.62
2017-11-29T17:00:50.448Z,32.15
2017-11-29T17:03:18.522Z,26.80
2017-11-29T17:05:56.493Z,23.40
2017-11-29T17:08:25.328Z,23.77
2017-11-29T17:10:53.501Z,29.27
2017-11-29T17:13:21.620Z,38.95
2017-11-29T17:15:50.455Z,24.95
2017-11-29T17:18:18.520Z,26.70
2017-11-29T17:20:46.616Z,22.92
2017-11-29T17:23:14.679Z,30.17
2017-11-29T17:25:42.753Z,32.92
2017-11-29T17:28:10.821Z,28.15
2017-11-29T17:30:38.923Z,29.10
2017-11-29T17:33:07.015Z,27.80
2017-11-29T17:35:35.084Z,25.17
2017-11-29T17:38:03.917Z,26.92
2017-11-29T17:40:31.984Z,25.50
2017-11-29T17:43:00.088Z,27.25
2017-11-29T17:45:28.275Z,28.52
2017-11-29T17:47:57.784Z,30.60
2017-11-29T17:50:26.611Z,150.90
2017-11-29T17:52:54.726Z,851.35
2017-11-29T17:55:22.888Z,243.18
2017-11-29T17:57:51.066Z,443.60
2017-11-29T18:00:19.157Z,824.03
2017-11-29T18:02:47.996Z,461.38
2017-11-29T18:05:16.084Z,389.30
2017-11-29T18:07:44.173Z,141.15
2017-11-29T18:10:12.235Z,131.32
2017-11-29T18:12:40.308Z,153.62
2017-11-29T18:15:08.393Z,68.18
2017-11-29T18:17:37.238Z,57.45
2017-11-29T18:20:05.325Z,61.22
2017-11-29T18:22:33.394Z,43.78
2017-11-29T18:25:01.473Z,46.83
2017-11-29T18:27:29.540Z,40.88
2017-11-29T18:29:57.611Z,28.62
2017-11-29T18:32:25.689Z,38.58
2017-11-29T18:34:53.743Z,35.13
2017-11-29T18:37:21.849Z,30.65
2017-11-29T18:39:49.926Z,33.45
2017-11-29T18:42:18.770Z,31.85
2017-11-29T18:44:46.845Z,34.85
2017-11-29T18:47:14.929Z,29.87
2017-11-29T18:49:43.101Z,31.48
2017-11-29T18:52:11.169Z,27.75
2017-11-29T18:54:39.227Z,25.12
2017-11-29T18:57:07.300Z,34.42
2017-11-29T18:59:35.490Z,30.23
2017-11-29T19:02:03.556Z,37.72
2017-11-29T19:04:32.299Z,30.27
2017-11-29T19:07:00.387Z,31.60
2017-11-29T19:09:28.457Z,32.05
2017-11-29T19:11:56.549Z,31.02
2017-11-29T19:14:24.746Z,28.02
2017-11-29T19:16:53.583Z,33.72
2017-11-29T19:19:21.718Z,36.13
2017-11-29T19:21:49.817Z,27.67
2017-11-29T19:24:18.048Z,32.00
2017-11-29T19:26:46.111Z,33.08
2017-11-29T19:29:14.280Z,32.85
2017-11-29T19:31:42.347Z,31.40
2017-11-29T19:34:10.424Z,29.95
2017-11-29T19:36:38.488Z,30.67
2017-11-29T19:39:06.569Z,38.78
2017-11-29T19:41:34.641Z,31.25
2017-11-29T19:44:02.796Z,37.25
2017-11-29T19:46:30.870Z,34.55
2017-11-29T19:48:58.945Z,32.53
2017-11-29T19:51:27.021Z,31.02
2017-11-29T19:53:55.094Z,43.35
2017-11-29T19:56:24.036Z,39.60
2017-11-29T19:58:52.109Z,34.28
2017-11-29T20:01:20.186Z,37.03
2017-11-29T20:03:48.279Z,32.88
2017-11-29T20:06:16.343Z,37.03
2017-11-29T20:08:44.424Z,39.28
2017-11-29T20:11:12.601Z,32.00
2017-11-29T20:13:40.677Z,34.10
2017-11-29T20:16:08.845Z,34.45
2017-11-29T20:18:36.923Z,33.45
2017-11-29T20:21:05.019Z,30.92
2017-11-29T20:23:33.869Z,32.15
2017-11-29T20:26:02.638Z,45.80
2017-11-29T20:28:30.705Z,37.22
2017-11-29T20:30:58.777Z,33.55
2017-11-29T20:33:26.860Z,36.60
2017-11-29T20:35:54.943Z,30.48
2017-11-29T20:38:23.022Z,35.67
2017-11-29T20:40:51.100Z,38.38
2017-11-29T20:43:19.260Z,43.72
2017-11-29T20:45:47.335Z,36.63
2017-11-29T20:48:15.403Z,40.25
2017-11-29T20:50:43.497Z,42.13
2017-11-29T20:53:12.336Z,44.15
2017-11-29T20:55:40.432Z,47.03
2017-11-29T20:58:08.609Z,32.97
2017-11-29T21:00:36.687Z,40.47
2017-11-29T21:03:05.535Z,35.80
2017-11-29T21:05:33.625Z,35.80
2017-11-29T21:08:01.888Z,39.22
2017-11-29T21:10:29.958Z,42.40
2017-11-29T21:12:58.582Z,38.97
2017-11-29T21:15:27.432Z,36.58
2017-11-29T21:17:55.519Z,31.52
2017-11-29T21:20:23.588Z,60.95
2017-11-29T21:22:51.676Z,69.75
2017-11-29T21:25:19.773Z,42.00
2017-11-29T21:27:47.906Z,41.83
2017-11-29T21:30:15.989Z,42.53
2017-11-29T21:32:44.061Z,60.65
2017-11-29T21:35:12.517Z,47.42
2017-11-29T21:37:40.593Z,39.13
2017-11-29T21:40:08.674Z,33.40
2017-11-29T21:42:36.880Z,36.40
2017-11-29T21:45:05.716Z,131.87
2017-11-29T21:47:33.796Z,51.70
2017-11-29T21:50:02.781Z,34.80
2017-11-29T21:52:30.848Z,32.15
2017-11-29T21:54:59.040Z,33.63
2017-11-29T21:57:27.122Z,45.88
2017-11-29T21:59:55.191Z,44.50
2017-11-29T22:02:23.265Z,36.47
2017-11-29T22:04:51.323Z,29.73
2017-11-29T22:07:19.391Z,28.55
2017-11-29T22:09:47.500Z,30.27
2017-11-29T22:12:16.321Z,35.22
2017-11-29T22:14:44.387Z,27.85
2017-11-29T22:17:12.460Z,30.73
2017-11-29T22:19:40.536Z,25.02
2017-11-29T22:22:08.604Z,27.20
2017-11-29T22:24:36.684Z,27.27
2017-11-29T22:27:14.641Z,25.33
2017-11-29T22:29:43.221Z,29.05
2017-11-29T22:32:11.303Z,28.45
2017-11-29T22:34:39.382Z,24.83
2017-11-29T22:37:07.464Z,31.90
2017-11-29T22:39:35.560Z,27.05
2017-11-29T22:42:03.636Z,28.17
2017-11-29T22:44:31.816Z,26.05
2017-11-29T22:47:00.783Z,25.85
2017-11-29T22:49:29.503Z,32.60
2017-11-29T22:51:58.117Z,24.58
2017-11-29T22:54:26.295Z,30.30
2017-11-29T22:56:54.351Z,29.30
2017-11-29T22:59:22.464Z,29.85
2017-11-29T23:01:50.545Z,24.50
2017-11-29T23:04:18.661Z,26.37
2017-11-29T23:06:47.491Z,28.12
2017-11-29T23:09:15.595Z,26.15
2017-11-29T23:11:44.149Z,27.70
2017-11-29T23:14:12.224Z,25.75
2017-11-29T23:16:40.321Z,25.80
2017-11-29T23:19:08.392Z,26.85
2017-11-29T23:21:36.466Z,31.73
2017-11-29T23:24:04.583Z,40.70
2017-11-29T23:26:32.657Z,30.65
2017-11-29T23:29:00.727Z,31.55
2017-11-29T23:31:28.785Z,28.48
2017-11-29T23:33:56.873Z,28.62
2017-11-29T23:36:24.933Z,25.98
2017-11-29T23:38:53.599Z,30.37
2017-11-29T23:41:21.667Z,29.30
2017-11-29T23:43:50.504Z,24.35
2017-11-29T23:46:18.580Z,28.58
2017-11-29T23:48:46.661Z,26.27
2017-11-29T23:51:14.745Z,23.35
2017-11-29T23:53:42.811Z,30.27
2017-11-29T23:56:10.879Z,27.98
2017-11-29T23:58:38.935Z,29.17
